This is the latest recevied weather packets stored in our database for station/object K2ATL. If no packets are shown the sender has not sent any weather packets the latest 10 day(s).
| Time | Temp. | Humidity | Pressure | Rain* | Wind** | Luminosity | Snow |
|---|---|---|---|---|---|---|---|
| 1777152072 | 18.33° C | 81% | 1094.4 hPa | 0 mm | - | 254 W/m² | - |
| 1777151767 | 17.78° C | 81% | 1094.5 hPa | 0 mm | - | 349 W/m² | - |
| 1777151464 | 18.89° C | 83% | 1094.8 hPa | 0 mm | - | 268 W/m² | - |
| 1777151160 | 18.89° C | 82% | 1094.6 hPa | 0 mm | - | 303 W/m² | - |
| 1777150860 | 18.33° C | 84% | 1094.4 hPa | 0 mm | - | 430 W/m² | - |
| 1777150555 | 18.33° C | 86% | 1094.5 hPa | 0 mm | - | 345 W/m² | - |
| 1777150250 | 16.67° C | 84% | 1094.4 hPa | 0 mm | - | 447 W/m² | - |
| 1777149949 | 15.56° C | 90% | 1094.5 hPa | 0 mm | - | 817 W/m² | - |
| 1777149644 | 16.11° C | 91% | 1094.7 hPa | 0 mm | - | 298 W/m² | - |
| 1777149341 | 15.56° C | 92% | 1094.8 hPa | 0 mm | - | 330 W/m² | - |
| 1777149037 | 16.11° C | 94% | 1094.7 hPa | 0 mm | - | 330 W/m² | - |
| 1777148732 | 15.56° C | 92% | 1094.7 hPa | 0 mm | - | 337 W/m² | - |
| 1777148428 | 15.56° C | 95% | 1094.7 hPa | 0 mm | - | 295 W/m² | - |
| 1777148125 | 15.56° C | 95% | 1094.5 hPa | 0 mm | - | 252 W/m² | - |
| 1777147821 | 15.56° C | 96% | 1094.6 hPa | 0 mm | - | 302 W/m² | - |
| 1777147517 | 16.11° C | 96% | 1094.5 hPa | 0 mm | - | 298 W/m² | - |
| 1777147213 | 15° C | 97% | 1094.5 hPa | 0 mm | - | 667 W/m² | - |
| 1777146909 | 14.44° C | 98% | 1094.6 hPa | 0 mm | - | 566 W/m² | - |
| 1777146605 | 15° C | 97% | 1094.9 hPa | 0 mm | - | 243 W/m² | - |
| 1777146300 | 15° C | 97% | 1095 hPa | 0 mm | - | 223 W/m² | - |
| 1777145996 | 15° C | 97% | 1095.3 hPa | 1.27 mm | - | 166 W/m² | - |
| 1777145693 | 15° C | 96% | 1095 hPa | 3.05 mm | - | 187 W/m² | - |
| 1777145389 | 15.56° C | 96% | 1095.3 hPa | 6.1 mm | - | 164 W/m² | - |
| 1777145084 | 15.56° C | 95% | 1095.3 hPa | 4.83 mm | - | 122 W/m² | - |
| 1777144779 | 16.67° C | 95% | 1095.3 hPa | 4.83 mm | - | 25 W/m² | - |
* Rain latest hour (hover to see other rain measurements)
** Current wind speed in m/s (hover to see current wind gust speed)